sensor_id;sensor_type;location;lat;lon;timestamp;pressure;altitude;pressure_sealevel;temperature;humidity
74329;BME280;62749;51.982;5.916;2024-02-23T00:00:39;75781.53;;;-147.22;91.19
74329;BME280;62749;51.982;5.916;2024-02-23T00:03:09;75775.47;;;-147.22;91.06
74329;BME280;62749;51.982;5.916;2024-02-23T00:05:41;75795.63;;;-147.22;91.06
74329;BME280;62749;51.982;5.916;2024-02-23T00:08:10;75779.50;;;-147.22;90.67
74329;BME280;62749;51.982;5.916;2024-02-23T00:10:40;75783.53;;;-147.22;89.75
74329;BME280;62749;51.982;5.916;2024-02-23T00:13:09;75769.44;;;-147.22;88.59
74329;BME280;62749;51.982;5.916;2024-02-23T00:15:39;75759.34;;;-147.22;87.80
74329;BME280;62749;51.982;5.916;2024-02-23T00:18:10;75755.31;;;-147.22;88.46
74329;BME280;62749;51.982;5.916;2024-02-23T00:20:43;75763.38;;;-147.22;89.29
74329;BME280;62749;51.982;5.916;2024-02-23T00:23:13;75753.31;;;-147.22;89.66
74329;BME280;62749;51.982;5.916;2024-02-23T00:26:02;75763.38;;;-147.22;90.20
74329;BME280;62749;51.982;5.916;2024-02-23T00:28:32;75755.31;;;-147.22;90.40
74329;BME280;62749;51.982;5.916;2024-02-23T00:31:01;75759.34;;;-147.22;90.54
74329;BME280;62749;51.982;5.916;2024-02-23T00:33:31;75763.38;;;-147.22;90.56
74329;BME280;62749;51.982;5.916;2024-02-23T00:36:04;75765.41;;;-147.22;90.43
74329;BME280;62749;51.982;5.916;2024-02-23T00:38:33;75747.25;;;-147.22;90.42
74329;BME280;62749;51.982;5.916;2024-02-23T00:41:03;75779.50;;;-147.22;89.77
74329;BME280;62749;51.982;5.916;2024-02-23T00:43:38;75769.44;;;-147.22;90.06
74329;BME280;62749;51.982;5.916;2024-02-23T00:46:08;75763.38;;;-147.22;90.06
74329;BME280;62749;51.982;5.916;2024-02-23T00:48:38;75761.38;;;-147.22;89.79
74329;BME280;62749;51.982;5.916;2024-02-23T00:51:10;75769.44;;;-147.22;89.10
74329;BME280;62749;51.982;5.916;2024-02-23T00:53:39;75781.53;;;-147.22;89.23
74329;BME280;62749;51.982;5.916;2024-02-23T00:56:09;75821.84;;;-147.22;88.29
74329;BME280;62749;51.982;5.916;2024-02-23T01:01:39;75856.09;;;-147.22;88.32
74329;BME280;62749;51.982;5.916;2024-02-23T01:04:09;75852.06;;;-147.22;89.14
74329;BME280;62749;51.982;5.916;2024-02-23T01:06:41;75860.13;;;-147.22;89.90
74329;BME280;62749;51.982;5.916;2024-02-23T01:09:10;75852.06;;;-147.22;90.34
74329;BME280;62749;51.982;5.916;2024-02-23T01:11:39;75846.03;;;-147.22;90.60
74329;BME280;62749;51.982;5.916;2024-02-23T01:14:09;75823.84;;;-147.22;90.88
74329;BME280;62749;51.982;5.916;2024-02-23T01:16:38;75809.75;;;-147.22;91.00
74329;BME280;62749;51.982;5.916;2024-02-23T01:19:08;75811.75;;;-147.22;90.71
74329;BME280;62749;51.982;5.916;2024-02-23T01:21:37;75807.72;;;-147.22;90.88
74329;BME280;62749;51.982;5.916;2024-02-23T01:24:09;75797.66;;;-147.22;90.34
74329;BME280;62749;51.982;5.916;2024-02-23T01:26:39;75799.66;;;-147.22;90.22
74329;BME280;62749;51.982;5.916;2024-02-23T01:29:08;75785.56;;;-147.22;90.40
74329;BME280;62749;51.982;5.916;2024-02-23T01:31:37;75781.53;;;-147.22;90.08
74329;BME280;62749;51.982;5.916;2024-02-23T01:34:07;75783.53;;;-147.22;89.97
74329;BME280;62749;51.982;5.916;2024-02-23T01:36:37;75791.59;;;-147.22;89.60
74329;BME280;62749;51.982;5.916;2024-02-23T01:39:09;75795.63;;;-147.22;89.42
74329;BME280;62749;51.982;5.916;2024-02-23T01:42:03;75803.69;;;-147.22;89.02
74329;BME280;62749;51.982;5.916;2024-02-23T01:44:33;75811.75;;;-147.22;88.91
74329;BME280;62749;51.982;5.916;2024-02-23T01:47:03;75803.69;;;-147.22;88.18
74329;BME280;62749;51.982;5.916;2024-02-23T01:49:33;75809.75;;;-147.22;88.33
74329;BME280;62749;51.982;5.916;2024-02-23T01:52:03;75807.72;;;-147.22;88.23
74329;BME280;62749;51.982;5.916;2024-02-23T01:54:36;75823.84;;;-147.22;88.17
74329;BME280;62749;51.982;5.916;2024-02-23T01:57:08;75819.81;;;-147.22;88.00
74329;BME280;62749;51.982;5.916;2024-02-23T01:59:39;75823.84;;;-147.22;87.74
74329;BME280;62749;51.982;5.916;2024-02-23T02:02:09;75829.91;;;-147.22;87.77
74329;BME280;62749;51.982;5.916;2024-02-23T02:04:38;75825.88;;;-147.22;87.67
74329;BME280;62749;51.982;5.916;2024-02-23T02:07:08;75833.94;;;-147.22;87.29
74329;BME280;62749;51.982;5.916;2024-02-23T02:09:40;75827.88;;;-147.22;87.10
74329;BME280;62749;51.982;5.916;2024-02-23T02:12:10;75831.91;;;-147.22;87.17
74329;BME280;62749;51.982;5.916;2024-02-23T02:14:39;75829.91;;;-147.22;86.68
74329;BME280;62749;51.982;5.916;2024-02-23T02:17:09;75837.97;;;-147.22;86.40
74329;BME280;62749;51.982;5.916;2024-02-23T02:19:38;75831.91;;;-147.22;86.38
74329;BME280;62749;51.982;5.916;2024-02-23T02:22:07;75842.00;;;-147.22;86.12
74329;BME280;62749;51.982;5.916;2024-02-23T02:24:39;75842.00;;;-147.22;85.83
74329;BME280;62749;51.982;5.916;2024-02-23T02:27:12;75856.09;;;-147.22;85.82
74329;BME280;62749;51.982;5.916;2024-02-23T02:29:42;75860.13;;;-147.22;85.63
74329;BME280;62749;51.982;5.916;2024-02-23T02:32:11;75844.00;;;-147.22;85.69
74329;BME280;62749;51.982;5.916;2024-02-23T02:34:40;75852.06;;;-147.22;85.53
74329;BME280;62749;51.982;5.916;2024-02-23T02:37:10;75860.13;;;-147.22;85.62
74329;BME280;62749;51.982;5.916;2024-02-23T02:39:42;75854.09;;;-147.22;85.61
74329;BME280;62749;51.982;5.916;2024-02-23T02:42:11;75864.16;;;-147.22;85.45
74329;BME280;62749;51.982;5.916;2024-02-23T02:44:41;75852.06;;;-147.22;85.56
74329;BME280;62749;51.982;5.916;2024-02-23T02:47:10;75856.09;;;-147.22;85.20
74329;BME280;62749;51.982;5.916;2024-02-23T02:49:51;75856.09;;;-147.22;84.62
74329;BME280;62749;51.982;5.916;2024-02-23T02:52:20;75835.94;;;-147.22;84.41
74329;BME280;62749;51.982;5.916;2024-02-23T02:54:52;75854.09;;;-147.22;84.64
74329;BME280;62749;51.982;5.916;2024-02-23T02:57:21;75852.06;;;-147.22;84.10
74329;BME280;62749;51.982;5.916;2024-02-23T02:59:51;75846.03;;;-147.22;84.23
74329;BME280;62749;51.982;5.916;2024-02-23T03:02:20;75852.06;;;-147.22;83.48
74329;BME280;62749;51.982;5.916;2024-02-23T03:04:50;75854.09;;;-147.22;83.43
74329;BME280;62749;51.982;5.916;2024-02-23T03:07:21;75852.06;;;-147.22;83.05
74329;BME280;62749;51.982;5.916;2024-02-23T03:09:53;75850.06;;;-147.22;83.20
74329;BME280;62749;51.982;5.916;2024-02-23T03:12:23;75846.03;;;-147.22;83.20
74329;BME280;62749;51.982;5.916;2024-02-23T03:14:52;75862.16;;;-147.22;83.25
74329;BME280;62749;51.982;5.916;2024-02-23T03:20:28;75868.19;;;-147.22;81.43
74329;BME280;62749;51.982;5.916;2024-02-23T03:22:58;75870.22;;;-147.22;82.21
74329;BME280;62749;51.982;5.916;2024-02-23T03:25:32;75870.22;;;-147.22;81.99
74329;BME280;62749;51.982;5.916;2024-02-23T03:28:02;75866.19;;;-147.22;82.19
74329;BME280;62749;51.982;5.916;2024-02-23T03:30:31;75864.16;;;-147.22;81.46
74329;BME280;62749;51.982;5.916;2024-02-23T03:33:00;75858.13;;;-147.22;81.80
74329;BME280;62749;51.982;5.916;2024-02-23T03:35:30;75874.25;;;-147.22;81.75
74329;BME280;62749;51.982;5.916;2024-02-23T03:37:59;75868.19;;;-147.22;81.22
74329;BME280;62749;51.982;5.916;2024-02-23T03:40:31;75874.25;;;-147.22;81.76
74329;BME280;62749;51.982;5.916;2024-02-23T03:43:02;75868.19;;;-147.22;81.59
74329;BME280;62749;51.982;5.916;2024-02-23T03:45:32;75872.22;;;-147.22;81.77
74329;BME280;62749;51.982;5.916;2024-02-23T03:48:03;75872.22;;;-147.22;81.46
74329;BME280;62749;51.982;5.916;2024-02-23T03:50:33;75882.31;;;-147.22;80.56
74329;BME280;62749;51.982;5.916;2024-02-23T03:53:02;75892.38;;;-147.22;81.26
74329;BME280;62749;51.982;5.916;2024-02-23T03:55:34;75892.38;;;-147.22;81.50
74329;BME280;62749;51.982;5.916;2024-02-23T03:58:04;75872.22;;;-147.22;81.61
74329;BME280;62749;51.982;5.916;2024-02-23T04:00:33;75874.25;;;-147.22;80.81
74329;BME280;62749;51.982;5.916;2024-02-23T04:03:04;75890.38;;;-147.22;81.09
74329;BME280;62749;51.982;5.916;2024-02-23T04:05:33;75894.41;;;-147.22;80.77
74329;BME280;62749;51.982;5.916;2024-02-23T04:08:04;75888.34;;;-147.22;80.70
74329;BME280;62749;51.982;5.916;2024-02-23T04:10:36;75904.47;;;-147.22;80.36
74329;BME280;62749;51.982;5.916;2024-02-23T04:13:05;75886.34;;;-147.22;80.28
74329;BME280;62749;51.982;5.916;2024-02-23T04:15:35;75892.38;;;-147.22;80.28
74329;BME280;62749;51.982;5.916;2024-02-23T04:18:05;75896.41;;;-147.22;80.68
74329;BME280;62749;51.982;5.916;2024-02-23T04:20:34;75892.38;;;-147.22;80.43
74329;BME280;62749;51.982;5.916;2024-02-23T04:23:04;75904.47;;;-147.22;80.40
74329;BME280;62749;51.982;5.916;2024-02-23T04:25:36;75896.41;;;-147.22;79.91
74329;BME280;62749;51.982;5.916;2024-02-23T04:28:05;75890.38;;;-147.22;80.05
74329;BME280;62749;51.982;5.916;2024-02-23T04:30:35;75904.47;;;-147.22;79.46
74329;BME280;62749;51.982;5.916;2024-02-23T04:33:05;75918.56;;;-147.22;80.04
74329;BME280;62749;51.982;5.916;2024-02-23T04:35:34;75920.59;;;-147.22;80.05
74329;BME280;62749;51.982;5.916;2024-02-23T04:38:04;75918.56;;;-147.22;79.57
74329;BME280;62749;51.982;5.916;2024-02-23T04:40:39;75914.53;;;-147.22;79.48
74329;BME280;62749;51.982;5.916;2024-02-23T04:43:08;75904.47;;;-147.22;79.55
74329;BME280;62749;51.982;5.916;2024-02-23T04:45:37;75912.53;;;-147.22;79.10
74329;BME280;62749;51.982;5.916;2024-02-23T04:48:07;75908.50;;;-147.22;79.10
74329;BME280;62749;51.982;5.916;2024-02-23T04:50:37;75916.56;;;-147.22;79.50
74329;BME280;62749;51.982;5.916;2024-02-23T04:53:06;75916.56;;;-147.22;78.89
74329;BME280;62749;51.982;5.916;2024-02-23T04:55:35;75916.56;;;-147.22;78.75
74329;BME280;62749;51.982;5.916;2024-02-23T04:58:08;75910.53;;;-147.22;79.02
74329;BME280;62749;51.982;5.916;2024-02-23T05:00:38;75912.53;;;-147.22;79.03
74329;BME280;62749;51.982;5.916;2024-02-23T05:03:07;75918.56;;;-147.22;78.95
74329;BME280;62749;51.982;5.916;2024-02-23T05:05:37;75910.53;;;-147.22;78.89
74329;BME280;62749;51.982;5.916;2024-02-23T05:08:07;75924.63;;;-147.22;78.30
74329;BME280;62749;51.982;5.916;2024-02-23T05:10:36;75912.53;;;-147.22;78.03
74329;BME280;62749;51.982;5.916;2024-02-23T05:13:08;75910.53;;;-147.22;78.74
74329;BME280;62749;51.982;5.916;2024-02-23T05:15:37;75908.50;;;-147.22;78.52
74329;BME280;62749;51.982;5.916;2024-02-23T05:18:07;75912.53;;;-147.22;78.88
74329;BME280;62749;51.982;5.916;2024-02-23T05:20:36;75912.53;;;-147.22;78.37
74329;BME280;62749;51.982;5.916;2024-02-23T05:23:06;75912.53;;;-147.22;78.22
74329;BME280;62749;51.982;5.916;2024-02-23T05:25:39;75904.47;;;-147.22;78.10
74329;BME280;62749;51.982;5.916;2024-02-23T05:28:11;75886.34;;;-147.22;77.49
74329;BME280;62749;51.982;5.916;2024-02-23T05:30:41;75888.34;;;-147.22;77.12
74329;BME280;62749;51.982;5.916;2024-02-23T05:33:10;75880.28;;;-147.22;77.18
74329;BME280;62749;51.982;5.916;2024-02-23T05:35:39;75866.19;;;-147.22;77.27
74329;BME280;62749;51.982;5.916;2024-02-23T05:38:09;75878.28;;;-147.22;77.00
74329;BME280;62749;51.982;5.916;2024-02-23T05:40:38;75886.34;;;-147.22;77.67
74329;BME280;62749;51.982;5.916;2024-02-23T05:43:11;75892.38;;;-147.22;77.31
74329;BME280;62749;51.982;5.916;2024-02-23T05:45:40;75880.28;;;-147.22;77.54
74329;BME280;62749;51.982;5.916;2024-02-23T05:48:10;75876.25;;;-147.22;76.90
74329;BME280;62749;51.982;5.916;2024-02-23T05:50:39;75892.38;;;-147.22;77.27
74329;BME280;62749;51.982;5.916;2024-02-23T05:53:09;75884.31;;;-147.22;77.38
74329;BME280;62749;51.982;5.916;2024-02-23T05:55:38;75876.25;;;-147.22;76.54
74329;BME280;62749;51.982;5.916;2024-02-23T05:58:08;75888.34;;;-147.22;76.64
74329;BME280;62749;51.982;5.916;2024-02-23T06:00:42;75876.25;;;-147.22;76.54
74329;BME280;62749;51.982;5.916;2024-02-23T06:03:22;75890.38;;;-147.22;76.50
74329;BME280;62749;51.982;5.916;2024-02-23T06:05:51;75888.34;;;-147.22;77.06
74329;BME280;62749;51.982;5.916;2024-02-23T06:08:20;75884.31;;;-147.22;76.41
74329;BME280;62749;51.982;5.916;2024-02-23T06:10:50;75872.22;;;-147.22;76.48
74329;BME280;62749;51.982;5.916;2024-02-23T06:13:19;75866.19;;;-147.22;76.09
74329;BME280;62749;51.982;5.916;2024-02-23T06:15:51;75870.22;;;-147.22;76.16
74329;BME280;62749;51.982;5.916;2024-02-23T06:18:21;75868.19;;;-147.22;76.01
74329;BME280;62749;51.982;5.916;2024-02-23T06:20:50;75868.19;;;-147.22;76.07
74329;BME280;62749;51.982;5.916;2024-02-23T06:23:20;75880.28;;;-147.22;76.00
74329;BME280;62749;51.982;5.916;2024-02-23T06:25:50;75874.25;;;-147.22;75.72
74329;BME280;62749;51.982;5.916;2024-02-23T06:28:19;75870.22;;;-147.22;76.13
74329;BME280;62749;51.982;5.916;2024-02-23T06:30:51;75880.28;;;-147.22;75.68
74329;BME280;62749;51.982;5.916;2024-02-23T06:33:21;75888.34;;;-147.22;75.36
74329;BME280;62749;51.982;5.916;2024-02-23T06:35:51;75874.25;;;-147.22;75.67
74329;BME280;62749;51.982;5.916;2024-02-23T06:38:20;75862.16;;;-147.22;75.64
74329;BME280;62749;51.982;5.916;2024-02-23T06:40:50;75868.19;;;-147.22;75.60
74329;BME280;62749;51.982;5.916;2024-02-23T06:43:21;75872.22;;;-147.22;75.57
74329;BME280;62749;51.982;5.916;2024-02-23T06:45:53;75870.22;;;-147.22;75.31
74329;BME280;62749;51.982;5.916;2024-02-23T06:48:45;75868.19;;;-147.22;74.98
74329;BME280;62749;51.982;5.916;2024-02-23T06:51:14;75864.16;;;-147.22;75.69
74329;BME280;62749;51.982;5.916;2024-02-23T06:53:46;75844.00;;;-147.22;75.53
74329;BME280;62749;51.982;5.916;2024-02-23T06:56:16;75854.09;;;-147.22;74.66
74329;BME280;62749;51.982;5.916;2024-02-23T06:58:45;75852.06;;;-147.22;73.38
74329;BME280;62749;51.982;5.916;2024-02-23T07:01:19;75852.06;;;-147.22;74.55
74329;BME280;62749;51.982;5.916;2024-02-23T07:03:49;75858.13;;;-147.22;74.51
74329;BME280;62749;51.982;5.916;2024-02-23T07:06:20;75852.06;;;-147.22;73.74
74329;BME280;62749;51.982;5.916;2024-02-23T07:08:50;75835.94;;;-147.22;73.49
74329;BME280;62749;51.982;5.916;2024-02-23T07:11:21;75831.91;;;-147.22;73.43
74329;BME280;62749;51.982;5.916;2024-02-23T07:13:50;75823.84;;;-147.22;73.61
74329;BME280;62749;51.982;5.916;2024-02-23T07:16:22;75811.75;;;-147.22;72.31
74329;BME280;62749;51.982;5.916;2024-02-23T07:18:51;75842.00;;;-147.22;72.14
74329;BME280;62749;51.982;5.916;2024-02-23T07:21:21;75829.91;;;-147.22;72.35
74329;BME280;62749;51.982;5.916;2024-02-23T07:23:52;75809.75;;;-147.22;71.28
74329;BME280;62749;51.982;5.916;2024-02-23T07:26:21;75821.84;;;-147.22;71.55
74329;BME280;62749;51.982;5.916;2024-02-23T07:28:51;75815.78;;;-147.22;70.76
74329;BME280;62749;51.982;5.916;2024-02-23T07:31:23;75811.75;;;-147.22;71.27
74329;BME280;62749;51.982;5.916;2024-02-23T07:33:52;75823.84;;;-147.22;70.44
74329;BME280;62749;51.982;5.916;2024-02-23T07:36:22;75823.84;;;-147.22;70.54
74329;BME280;62749;51.982;5.916;2024-02-23T07:38:51;75827.88;;;-147.22;70.25
74329;BME280;62749;51.982;5.916;2024-02-23T07:41:21;75821.84;;;-147.22;70.38
74329;BME280;62749;51.982;5.916;2024-02-23T07:43:51;75817.81;;;-147.22;69.27
74329;BME280;62749;51.982;5.916;2024-02-23T07:46:23;75825.88;;;-147.22;69.26
74329;BME280;62749;51.982;5.916;2024-02-23T07:48:52;75829.91;;;-147.22;69.04
74329;BME280;62749;51.982;5.916;2024-02-23T07:51:21;75821.84;;;-147.22;69.82
74329;BME280;62749;51.982;5.916;2024-02-23T07:53:51;75821.84;;;-147.22;68.81
74329;BME280;62749;51.982;5.916;2024-02-23T07:56:20;75813.78;;;-147.22;68.30
74329;BME280;62749;51.982;5.916;2024-02-23T07:58:50;75809.75;;;-147.22;67.60
74329;BME280;62749;51.982;5.916;2024-02-23T08:01:19;75797.66;;;-147.22;67.48
74329;BME280;62749;51.982;5.916;2024-02-23T08:03:51;75787.56;;;-147.22;68.35
74329;BME280;62749;51.982;5.916;2024-02-23T08:06:20;75797.66;;;-147.22;68.06
74329;BME280;62749;51.982;5.916;2024-02-23T08:08:50;75789.59;;;-147.22;68.06
74329;BME280;62749;51.982;5.916;2024-02-23T08:11:20;75781.53;;;-147.22;67.37
74329;BME280;62749;51.982;5.916;2024-02-23T08:13:49;75773.47;;;-147.22;67.54
74329;BME280;62749;51.982;5.916;2024-02-23T08:16:18;75777.50;;;-147.22;66.40
74329;BME280;62749;51.982;5.916;2024-02-23T08:18:50;75771.44;;;-147.22;67.10
74329;BME280;62749;51.982;5.916;2024-02-23T08:21:20;75761.38;;;-147.22;65.99
74329;BME280;62749;51.982;5.916;2024-02-23T08:23:49;75779.50;;;-147.22;67.07
74329;BME280;62749;51.982;5.916;2024-02-23T08:26:18;75785.56;;;-147.22;67.51
74329;BME280;62749;51.982;5.916;2024-02-23T08:28:48;75773.47;;;-147.22;67.75
74329;BME280;62749;51.982;5.916;2024-02-23T08:31:18;75781.53;;;-147.22;66.95
74329;BME280;62749;51.982;5.916;2024-02-23T08:36:56;75763.38;;;-147.22;66.67
74329;BME280;62749;51.982;5.916;2024-02-23T08:39:25;75747.25;;;-147.22;67.10
74329;BME280;62749;51.982;5.916;2024-02-23T08:41:55;75749.28;;;-147.22;66.99
74329;BME280;62749;51.982;5.916;2024-02-23T08:44:24;75751.28;;;-147.22;66.33
74329;BME280;62749;51.982;5.916;2024-02-23T08:46:54;75743.22;;;-147.22;67.10
74329;BME280;62749;51.982;5.916;2024-02-23T08:49:23;75727.13;;;-147.22;65.44
74329;BME280;62749;51.982;5.916;2024-02-23T08:51:52;75706.97;;;-147.22;65.13
74329;BME280;62749;51.982;5.916;2024-02-23T08:54:27;75694.88;;;-147.22;64.55
74329;BME280;62749;51.982;5.916;2024-02-23T08:56:59;75694.88;;;-147.22;65.34
74329;BME280;62749;51.982;5.916;2024-02-23T08:59:30;75698.91;;;-147.22;65.55
74329;BME280;62749;51.982;5.916;2024-02-23T09:01:59;75706.97;;;-147.22;65.12
74329;BME280;62749;51.982;5.916;2024-02-23T09:04:29;75694.88;;;-147.22;64.67
74329;BME280;62749;51.982;5.916;2024-02-23T09:06:59;75696.88;;;-147.22;63.92
74329;BME280;62749;51.982;5.916;2024-02-23T09:09:31;75692.84;;;-147.22;64.88
74329;BME280;62749;51.982;5.916;2024-02-23T09:12:01;75698.91;;;-147.22;64.37
74329;BME280;62749;51.982;5.916;2024-02-23T09:14:57;75702.94;;;-147.22;64.71
74329;BME280;62749;51.982;5.916;2024-02-23T09:17:26;75680.75;;;-147.22;64.85
74329;BME280;62749;51.982;5.916;2024-02-23T09:19:56;75694.88;;;-147.22;64.55
74329;BME280;62749;51.982;5.916;2024-02-23T09:22:25;75686.81;;;-147.22;64.54
74329;BME280;62749;51.982;5.916;2024-02-23T09:24:57;75678.75;;;-147.22;65.34
74329;BME280;62749;51.982;5.916;2024-02-23T09:27:26;75674.72;;;-147.22;64.69
74329;BME280;62749;51.982;5.916;2024-02-23T09:29:56;75672.69;;;-147.22;65.27
74329;BME280;62749;51.982;5.916;2024-02-23T09:32:25;75674.72;;;-147.22;65.22
74329;BME280;62749;51.982;5.916;2024-02-23T09:34:54;75668.66;;;-147.22;65.15
74329;BME280;62749;51.982;5.916;2024-02-23T09:37:25;75676.72;;;-147.22;64.92
74329;BME280;62749;51.982;5.916;2024-02-23T09:39:57;75678.75;;;-147.22;65.21
74329;BME280;62749;51.982;5.916;2024-02-23T09:42:28;75692.84;;;-147.22;65.45
74329;BME280;62749;51.982;5.916;2024-02-23T09:45:00;75682.78;;;-147.22;65.64
74329;BME280;62749;51.982;5.916;2024-02-23T09:47:29;75692.84;;;-147.22;65.35
74329;BME280;62749;51.982;5.916;2024-02-23T09:50:03;75694.88;;;-147.22;64.77
74329;BME280;62749;51.982;5.916;2024-02-23T09:52:33;75682.78;;;-147.22;65.21
74329;BME280;62749;51.982;5.916;2024-02-23T09:55:06;75692.84;;;-147.22;65.22
74329;BME280;62749;51.982;5.916;2024-02-23T09:57:36;75696.88;;;-147.22;65.51
74329;BME280;62749;51.982;5.916;2024-02-23T10:00:08;75680.75;;;-147.22;65.72
74329;BME280;62749;51.982;5.916;2024-02-23T10:02:39;75670.69;;;-147.22;64.52
74329;BME280;62749;51.982;5.916;2024-02-23T10:05:10;75682.78;;;-147.22;65.69
74329;BME280;62749;51.982;5.916;2024-02-23T10:07:40;75676.72;;;-147.22;65.02
74329;BME280;62749;51.982;5.916;2024-02-23T10:10:14;75676.72;;;-147.22;65.66
74329;BME280;62749;51.982;5.916;2024-02-23T10:12:43;75670.69;;;-147.22;65.59
74329;BME280;62749;51.982;5.916;2024-02-23T10:15:13;75656.56;;;-147.22;65.05
74329;BME280;62749;51.982;5.916;2024-02-23T10:17:42;75670.69;;;-147.22;65.92
74329;BME280;62749;51.982;5.916;2024-02-23T10:20:12;75686.81;;;-147.22;67.41
74329;BME280;62749;51.982;5.916;2024-02-23T10:22:41;75688.81;;;-147.22;67.69
74329;BME280;62749;51.982;5.916;2024-02-23T10:25:10;75676.72;;;-147.22;68.59
74329;BME280;62749;51.982;5.916;2024-02-23T10:27:44;75686.81;;;-147.22;69.04
74329;BME280;62749;51.982;5.916;2024-02-23T10:30:14;75696.88;;;-147.22;69.40
74329;BME280;62749;51.982;5.916;2024-02-23T10:32:45;75686.81;;;-147.22;68.90
74329;BME280;62749;51.982;5.916;2024-02-23T10:35:16;75694.88;;;-147.22;68.88
74329;BME280;62749;51.982;5.916;2024-02-23T10:37:48;75715.03;;;-147.22;69.30
74329;BME280;62749;51.982;5.916;2024-02-23T10:40:19;75719.03;;;-147.22;69.32
74329;BME280;62749;51.982;5.916;2024-02-23T10:42:56;75733.16;;;-147.22;70.08
74329;BME280;62749;51.982;5.916;2024-02-23T10:45:26;75735.16;;;-147.22;69.98
74329;BME280;62749;51.982;5.916;2024-02-23T10:47:59;75731.13;;;-147.22;70.70
74329;BME280;62749;51.982;5.916;2024-02-23T10:50:36;75713.00;;;-147.22;70.02
74329;BME280;62749;51.982;5.916;2024-02-23T10:53:07;75708.97;;;-147.22;68.43
74329;BME280;62749;51.982;5.916;2024-02-23T10:55:39;75706.97;;;-147.22;68.43
74329;BME280;62749;51.982;5.916;2024-02-23T10:58:12;75717.03;;;-147.22;68.28
74329;BME280;62749;51.982;5.916;2024-02-23T11:00:42;75711.00;;;-147.22;68.51
74329;BME280;62749;51.982;5.916;2024-02-23T11:03:14;75719.03;;;-147.22;67.92
74329;BME280;62749;51.982;5.916;2024-02-23T11:05:47;75715.03;;;-147.22;67.25
74329;BME280;62749;51.982;5.916;2024-02-23T11:08:17;75721.06;;;-147.22;67.54
74329;BME280;62749;51.982;5.916;2024-02-23T11:10:51;75725.09;;;-147.22;67.83
74329;BME280;62749;51.982;5.916;2024-02-23T11:13:37;75719.03;;;-147.22;67.75
74329;BME280;62749;51.982;5.916;2024-02-23T11:16:08;75698.91;;;-147.22;66.91
74329;BME280;62749;51.982;5.916;2024-02-23T11:18:39;75700.91;;;-147.22;66.86
74329;BME280;62749;51.982;5.916;2024-02-23T11:21:10;75711.00;;;-147.22;66.91
74329;BME280;62749;51.982;5.916;2024-02-23T11:23:43;75692.84;;;-147.22;66.33
74329;BME280;62749;51.982;5.916;2024-02-23T11:26:13;75704.94;;;-147.22;66.38
74329;BME280;62749;51.982;5.916;2024-02-23T11:28:47;75735.16;;;-147.22;67.23
74329;BME280;62749;51.982;5.916;2024-02-23T11:31:20;75708.97;;;-147.22;66.65
74329;BME280;62749;51.982;5.916;2024-02-23T11:33:52;75717.03;;;-147.22;67.42
74329;BME280;62749;51.982;5.916;2024-02-23T11:36:28;75711.00;;;-147.22;67.05
74329;BME280;62749;51.982;5.916;2024-02-23T11:38:58;75696.88;;;-147.22;66.26
74329;BME280;62749;51.982;5.916;2024-02-23T11:41:29;75698.91;;;-147.22;66.48
74329;BME280;62749;51.982;5.916;2024-02-23T11:44:01;75696.88;;;-147.22;67.29
74329;BME280;62749;51.982;5.916;2024-02-23T11:46:32;75704.94;;;-147.22;67.41
74329;BME280;62749;51.982;5.916;2024-02-23T11:49:02;75692.84;;;-147.22;67.58
74329;BME280;62749;51.982;5.916;2024-02-23T11:51:33;75668.66;;;-147.22;66.72
74329;BME280;62749;51.982;5.916;2024-02-23T11:54:03;75656.56;;;-147.22;66.80
74329;BME280;62749;51.982;5.916;2024-02-23T11:56:32;75652.53;;;-147.22;66.33
74329;BME280;62749;51.982;5.916;2024-02-23T11:59:04;75660.59;;;-147.22;65.79
74329;BME280;62749;51.982;5.916;2024-02-23T12:01:34;75670.69;;;-147.22;66.86
74329;BME280;62749;51.982;5.916;2024-02-23T12:04:03;75650.53;;;-147.22;66.27
74329;BME280;62749;51.982;5.916;2024-02-23T12:06:33;75680.75;;;-147.22;66.65
74329;BME280;62749;51.982;5.916;2024-02-23T12:09:03;75678.75;;;-147.22;66.71
74329;BME280;62749;51.982;5.916;2024-02-23T12:11:37;75666.66;;;-147.22;65.12
74329;BME280;62749;51.982;5.916;2024-02-23T12:14:09;75664.63;;;-147.22;65.58
74329;BME280;62749;51.982;5.916;2024-02-23T12:16:40;75674.72;;;-147.22;65.53
74329;BME280;62749;51.982;5.916;2024-02-23T12:19:09;75684.78;;;-147.22;65.85
74329;BME280;62749;51.982;5.916;2024-02-23T12:21:38;75676.72;;;-147.22;65.87
74329;BME280;62749;51.982;5.916;2024-02-23T12:24:08;75666.66;;;-147.22;65.82
74329;BME280;62749;51.982;5.916;2024-02-23T12:26:38;75670.69;;;-147.22;65.36
74329;BME280;62749;51.982;5.916;2024-02-23T12:29:10;75676.72;;;-147.22;65.89
74329;BME280;62749;51.982;5.916;2024-02-23T12:31:39;75674.72;;;-147.22;66.33
74329;BME280;62749;51.982;5.916;2024-02-23T12:34:11;75670.69;;;-147.22;65.70
74329;BME280;62749;51.982;5.916;2024-02-23T12:37:01;75678.75;;;-147.22;66.46
74329;BME280;62749;51.982;5.916;2024-02-23T12:39:31;75670.69;;;-147.22;66.19
74329;BME280;62749;51.982;5.916;2024-02-23T12:42:01;75682.78;;;-147.22;65.83
74329;BME280;62749;51.982;5.916;2024-02-23T12:44:33;75664.63;;;-147.22;66.08
74329;BME280;62749;51.982;5.916;2024-02-23T12:47:03;75642.47;;;-147.22;65.64
74329;BME280;62749;51.982;5.916;2024-02-23T12:49:42;75648.50;;;-147.22;64.62
74329;BME280;62749;51.982;5.916;2024-02-23T12:52:12;75660.59;;;-147.22;65.32
74329;BME280;62749;51.982;5.916;2024-02-23T12:54:41;75648.50;;;-147.22;65.21
74329;BME280;62749;51.982;5.916;2024-02-23T12:57:11;75626.34;;;-147.22;64.76
74329;BME280;62749;51.982;5.916;2024-02-23T12:59:43;75610.22;;;-147.22;64.40
74329;BME280;62749;51.982;5.916;2024-02-23T13:02:12;75612.22;;;-147.22;63.58
74329;BME280;62749;51.982;5.916;2024-02-23T13:04:42;75618.28;;;-147.22;64.27
74329;BME280;62749;51.982;5.916;2024-02-23T13:07:16;75622.31;;;-147.22;64.37